createdAt,value
2017-12-28T00:01:30.661Z,1.90
2017-12-28T00:03:57.701Z,1.80
2017-12-28T00:09:07.588Z,1.97
2017-12-28T00:11:34.447Z,1.90
2017-12-28T00:14:01.250Z,1.83
2017-12-28T00:16:28.026Z,1.87
2017-12-28T00:18:54.845Z,1.40
2017-12-28T00:21:21.745Z,1.80
2017-12-28T00:23:48.557Z,2.00
2017-12-28T00:26:16.236Z,1.73
2017-12-28T00:28:43.144Z,1.50
2017-12-28T00:31:09.959Z,1.50
2017-12-28T00:33:36.831Z,2.17
2017-12-28T00:36:03.651Z,2.43
2017-12-28T00:38:30.487Z,1.47
2017-12-28T00:40:57.245Z,1.80
2017-12-28T00:43:24.098Z,1.70
2017-12-28T00:45:50.929Z,1.70
2017-12-28T00:48:17.714Z,2.40
2017-12-28T00:50:44.675Z,2.00
2017-12-28T00:53:13.106Z,2.40
2017-12-28T00:55:41.127Z,1.80
2017-12-28T00:58:08.884Z,2.20
2017-12-28T01:00:35.744Z,2.10
2017-12-28T01:03:02.565Z,1.90
2017-12-28T01:05:31.282Z,2.20
2017-12-28T01:07:59.979Z,2.00
2017-12-28T01:10:28.901Z,1.87
2017-12-28T01:12:55.745Z,2.40
2017-12-28T01:15:22.579Z,1.90
2017-12-28T01:17:49.360Z,2.07
2017-12-28T01:20:16.176Z,1.83
2017-12-28T01:22:42.922Z,2.03
2017-12-28T01:25:09.748Z,1.90
2017-12-28T01:27:36.535Z,1.97
2017-12-28T01:30:03.333Z,1.80
2017-12-28T01:32:30.108Z,1.67
2017-12-28T01:34:56.865Z,2.10
2017-12-28T01:37:23.649Z,1.80
2017-12-28T01:39:50.913Z,2.07
2017-12-28T01:42:17.766Z,1.97
2017-12-28T01:44:46.183Z,2.13
2017-12-28T01:47:13.001Z,2.17
2017-12-28T01:49:39.827Z,2.00
2017-12-28T01:52:06.636Z,1.93
2017-12-28T01:54:33.475Z,2.13
2017-12-28T01:57:00.277Z,1.80
2017-12-28T01:59:27.089Z,2.00
2017-12-28T02:01:53.865Z,2.00
2017-12-28T02:04:20.689Z,1.87
2017-12-28T02:06:47.466Z,1.87
2017-12-28T02:09:14.292Z,1.93
2017-12-28T02:11:41.074Z,1.87
2017-12-28T02:14:07.866Z,1.70
2017-12-28T02:16:34.636Z,1.47
2017-12-28T02:19:01.405Z,1.70
2017-12-28T02:21:28.199Z,1.30
2017-12-28T02:23:54.980Z,1.60
2017-12-28T02:26:21.752Z,1.17
2017-12-28T02:28:48.569Z,1.40
2017-12-28T02:31:15.417Z,1.57
2017-12-28T02:33:42.218Z,1.70
2017-12-28T02:36:09.021Z,1.50
2017-12-28T02:38:35.789Z,1.53
2017-12-28T02:41:02.601Z,1.33
2017-12-28T02:43:29.361Z,1.50
2017-12-28T02:45:56.121Z,1.70
2017-12-28T02:48:22.958Z,1.50
2017-12-28T02:50:49.792Z,1.67
2017-12-28T02:53:16.653Z,1.60
2017-12-28T02:55:43.477Z,2.47
2017-12-28T02:58:10.321Z,2.10
2017-12-28T03:00:37.149Z,1.80
2017-12-28T03:03:03.963Z,2.00
2017-12-28T03:05:30.871Z,1.83
2017-12-28T03:07:57.654Z,1.67
2017-12-28T03:10:24.570Z,2.27
2017-12-28T03:12:51.430Z,2.07
2017-12-28T03:15:18.311Z,1.63
2017-12-28T03:17:45.530Z,1.97
2017-12-28T03:20:12.405Z,2.10
2017-12-28T03:22:39.273Z,2.30
2017-12-28T03:25:06.132Z,2.00
2017-12-28T03:27:32.963Z,2.00
2017-12-28T03:29:59.847Z,2.20
2017-12-28T03:32:26.681Z,2.83
2017-12-28T03:34:53.539Z,2.00
2017-12-28T03:37:20.381Z,2.30
2017-12-28T03:39:47.554Z,2.10
2017-12-28T03:42:14.384Z,2.50
2017-12-28T03:44:41.193Z,2.10
2017-12-28T03:47:08.010Z,2.10
2017-12-28T03:49:34.810Z,2.37
2017-12-28T03:52:01.589Z,2.93
2017-12-28T03:54:28.385Z,3.53
2017-12-28T03:56:55.294Z,2.90
2017-12-28T03:59:22.098Z,3.17
2017-12-28T04:01:48.857Z,3.00
2017-12-28T04:04:15.616Z,3.23
2017-12-28T04:06:42.380Z,3.57
2017-12-28T04:09:09.363Z,3.20
2017-12-28T04:11:36.127Z,3.97
2017-12-28T04:14:02.952Z,3.40
2017-12-28T04:16:29.744Z,3.60
2017-12-28T04:18:56.536Z,4.23
2017-12-28T04:21:23.364Z,3.80
2017-12-28T04:23:50.186Z,3.80
2017-12-28T04:26:16.931Z,4.40
2017-12-28T04:28:43.758Z,4.60
2017-12-28T04:31:10.554Z,4.13
2017-12-28T04:33:37.283Z,4.20
2017-12-28T04:36:04.069Z,4.67
2017-12-28T04:38:30.814Z,5.00
2017-12-28T04:40:57.584Z,5.40
2017-12-28T04:43:24.399Z,4.47
2017-12-28T04:45:51.187Z,4.63
2017-12-28T04:48:18.010Z,4.47
2017-12-28T04:50:44.863Z,4.70
2017-12-28T04:53:11.650Z,5.00
2017-12-28T04:55:38.457Z,4.83
2017-12-28T04:58:05.253Z,5.10
2017-12-28T05:00:32.058Z,4.97
2017-12-28T05:02:58.836Z,4.80
2017-12-28T05:05:25.630Z,4.73
2017-12-28T05:07:52.386Z,5.20
2017-12-28T05:10:19.196Z,5.40
2017-12-28T05:12:45.963Z,4.80
2017-12-28T05:15:12.712Z,4.67
2017-12-28T05:17:39.485Z,5.00
2017-12-28T05:20:06.255Z,4.13
2017-12-28T05:22:33.054Z,5.30
2017-12-28T05:24:59.851Z,4.17
2017-12-28T05:27:26.649Z,4.00
2017-12-28T05:29:53.425Z,3.70
2017-12-28T05:32:20.204Z,3.63
2017-12-28T05:34:47.006Z,3.20
2017-12-28T05:37:13.776Z,3.17
2017-12-28T05:39:40.609Z,2.90
2017-12-28T05:42:07.430Z,3.17
2017-12-28T05:44:34.219Z,2.40
2017-12-28T05:47:00.999Z,1.80
2017-12-28T05:49:27.777Z,1.70
2017-12-28T05:51:54.580Z,1.80
2017-12-28T05:54:21.358Z,1.50
2017-12-28T05:56:48.166Z,2.00
2017-12-28T05:59:14.921Z,1.90
2017-12-28T06:01:41.715Z,1.40
2017-12-28T06:04:08.533Z,1.40
2017-12-28T06:06:35.345Z,1.53
2017-12-28T06:09:02.176Z,1.60
2017-12-28T06:11:28.953Z,1.47
2017-12-28T06:13:55.733Z,1.63
2017-12-28T06:16:22.538Z,1.30
2017-12-28T06:18:49.416Z,1.70
2017-12-28T06:21:16.167Z,1.57
2017-12-28T06:23:42.997Z,1.83
2017-12-28T06:26:09.782Z,1.87
2017-12-28T06:28:36.651Z,1.80
2017-12-28T06:31:03.475Z,1.60
2017-12-28T06:33:30.271Z,2.20
2017-12-28T06:35:57.085Z,1.80
2017-12-28T06:38:23.870Z,1.30
2017-12-28T06:40:50.703Z,1.80
2017-12-28T06:43:17.549Z,1.97
2017-12-28T06:45:44.411Z,2.00
2017-12-28T06:48:11.189Z,2.13
2017-12-28T06:50:38.047Z,2.00
2017-12-28T06:53:04.854Z,1.70
2017-12-28T06:55:31.651Z,1.87
2017-12-28T06:57:58.439Z,1.90
2017-12-28T07:00:26.439Z,1.70
2017-12-28T07:02:53.212Z,2.00
2017-12-28T07:05:20.042Z,1.90
2017-12-28T07:07:46.816Z,1.80
2017-12-28T07:10:13.648Z,2.07
2017-12-28T07:12:40.393Z,1.60
2017-12-28T07:15:07.197Z,1.70
2017-12-28T07:17:34.096Z,1.80
2017-12-28T07:20:00.926Z,1.90
2017-12-28T07:22:27.796Z,1.87
2017-12-28T07:24:54.857Z,2.13
2017-12-28T07:27:24.486Z,2.00
2017-12-28T07:29:51.376Z,2.40
2017-12-28T07:32:18.245Z,2.30
2017-12-28T07:34:50.312Z,2.07
2017-12-28T07:40:11.145Z,1.90
2017-12-28T07:42:52.858Z,2.23
2017-12-28T07:45:24.617Z,1.73
2017-12-28T07:47:54.596Z,2.10
2017-12-28T07:53:17.455Z,1.73
2017-12-28T07:55:45.244Z,3.00
2017-12-28T07:58:12.074Z,2.43
2017-12-28T08:00:48.906Z,2.20
2017-12-28T08:03:18.817Z,2.30
2017-12-28T08:05:45.627Z,2.70
2017-12-28T08:08:24.826Z,2.50
2017-12-28T08:11:02.832Z,2.83
2017-12-28T08:13:35.020Z,2.00
2017-12-28T08:16:02.500Z,2.50
2017-12-28T08:18:29.282Z,2.40
2017-12-28T08:20:56.526Z,2.07
2017-12-28T08:23:23.481Z,2.50
2017-12-28T08:25:51.075Z,2.60
2017-12-28T08:28:17.959Z,2.37
2017-12-28T08:30:44.881Z,3.27
2017-12-28T08:33:11.739Z,3.17
2017-12-28T08:35:40.239Z,3.30
2017-12-28T08:38:07.065Z,3.60
2017-12-28T08:40:33.952Z,2.90
2017-12-28T08:43:02.484Z,4.27
2017-12-28T08:45:29.342Z,4.10
2017-12-28T08:47:56.206Z,4.60
2017-12-28T08:50:23.854Z,4.10
2017-12-28T08:52:51.682Z,6.00
2017-12-28T08:55:18.642Z,4.87
2017-12-28T08:57:45.487Z,4.43
2017-12-28T09:00:12.301Z,4.77
2017-12-28T09:02:39.175Z,4.40
2017-12-28T09:05:06.040Z,4.60
2017-12-28T09:07:32.848Z,4.23
2017-12-28T09:10:03.150Z,4.00
2017-12-28T09:12:30.041Z,4.47
2017-12-28T09:14:58.780Z,3.87
2017-12-28T09:17:25.896Z,4.80
2017-12-28T09:19:52.942Z,4.30
2017-12-28T09:25:18.613Z,20.47
2017-12-28T09:27:45.395Z,5.37
2017-12-28T09:30:12.237Z,4.30
2017-12-28T09:32:39.146Z,4.30
2017-12-28T09:35:05.951Z,4.40
2017-12-28T09:37:32.810Z,4.20
2017-12-28T09:40:04.319Z,4.70
2017-12-28T09:42:31.169Z,4.47
2017-12-28T09:45:02.337Z,4.67
2017-12-28T09:47:31.093Z,5.13
2017-12-28T09:50:12.887Z,5.23
2017-12-28T09:55:24.464Z,5.70
2017-12-28T09:57:56.982Z,5.43
2017-12-28T10:00:23.926Z,5.70
2017-12-28T10:02:54.841Z,5.63
2017-12-28T10:05:22.297Z,6.47
2017-12-28T10:07:50.944Z,5.50
2017-12-28T10:10:18.011Z,6.00
2017-12-28T10:12:44.909Z,6.13
2017-12-28T10:15:11.743Z,5.90
2017-12-28T10:17:38.544Z,6.33
2017-12-28T10:20:05.896Z,5.70
2017-12-28T10:25:25.702Z,5.80
2017-12-28T10:27:55.178Z,5.70
2017-12-28T10:30:25.978Z,6.03
2017-12-28T10:32:58.510Z,5.40
2017-12-28T10:49:54.076Z,6.43
2017-12-28T10:52:22.019Z,5.87
2017-12-28T10:54:48.968Z,5.70
2017-12-28T10:57:22.005Z,5.70
2017-12-28T11:02:44.437Z,6.83
2017-12-28T11:05:11.232Z,6.57
2017-12-28T11:07:38.618Z,5.80
2017-12-28T11:10:05.430Z,5.53
2017-12-28T11:12:32.270Z,5.97
2017-12-28T11:15:00.251Z,5.77
2017-12-28T11:17:27.072Z,5.70
2017-12-28T11:19:55.033Z,5.87
2017-12-28T11:22:25.363Z,5.50
2017-12-28T11:24:52.245Z,6.40
2017-12-28T11:27:20.155Z,6.07
2017-12-28T11:29:46.945Z,5.77
2017-12-28T11:32:14.676Z,6.10
2017-12-28T11:34:41.570Z,6.27
2017-12-28T11:37:08.756Z,5.90
2017-12-28T11:39:35.722Z,6.33
2017-12-28T11:42:03.836Z,6.23
2017-12-28T11:44:30.645Z,6.60
2017-12-28T11:46:59.242Z,6.17
2017-12-28T11:49:27.875Z,5.07
2017-12-28T11:52:00.611Z,5.70
2017-12-28T11:54:32.966Z,5.67
2017-12-28T11:57:17.431Z,5.43
2017-12-28T12:02:35.449Z,6.20
2017-12-28T12:05:05.919Z,6.30
2017-12-28T12:07:35.632Z,5.50
2017-12-28T12:10:11.280Z,5.50
2017-12-28T12:12:39.956Z,5.60
2017-12-28T12:15:06.969Z,5.13
2017-12-28T12:17:36.926Z,5.70
2017-12-28T12:20:03.849Z,6.33
2017-12-28T12:22:31.192Z,5.60
2017-12-28T12:24:57.994Z,5.60
2017-12-28T12:27:24.768Z,5.90
2017-12-28T12:29:53.329Z,5.20
2017-12-28T12:32:20.107Z,5.27
2017-12-28T12:34:47.002Z,5.80
2017-12-28T12:37:20.785Z,5.33
2017-12-28T12:39:49.894Z,5.53
2017-12-28T12:42:16.760Z,6.23
2017-12-28T12:44:43.630Z,4.93
2017-12-28T12:47:10.418Z,5.70
2017-12-28T12:49:38.100Z,5.23
2017-12-28T12:52:05.029Z,5.00
2017-12-28T12:54:32.685Z,5.70
2017-12-28T12:57:01.190Z,5.57
2017-12-28T12:59:28.010Z,4.87
2017-12-28T13:01:54.880Z,4.60
2017-12-28T13:04:23.040Z,5.43
2017-12-28T13:06:49.814Z,4.50
2017-12-28T13:09:18.298Z,4.60
2017-12-28T13:11:45.360Z,5.20
2017-12-28T13:14:12.183Z,4.93
2017-12-28T13:16:43.935Z,5.13
2017-12-28T13:19:10.777Z,4.70
2017-12-28T13:21:38.561Z,5.03
2017-12-28T13:24:05.538Z,5.20
2017-12-28T13:26:35.237Z,4.97
2017-12-28T13:29:02.052Z,5.67
2017-12-28T13:31:29.647Z,4.90
2017-12-28T13:33:56.716Z,4.73
2017-12-28T13:36:23.562Z,5.20
2017-12-28T13:38:50.379Z,4.80
2017-12-28T13:41:17.265Z,4.93
2017-12-28T13:43:44.589Z,4.50
2017-12-28T13:46:31.034Z,4.67
2017-12-28T13:48:57.851Z,4.10
2017-12-28T13:51:24.676Z,5.60
2017-12-28T13:53:51.577Z,4.90
2017-12-28T13:56:22.655Z,5.00
2017-12-28T13:58:49.501Z,5.40
2017-12-28T14:01:16.779Z,5.57
2017-12-28T14:03:43.621Z,5.30
2017-12-28T14:06:14.147Z,4.13
2017-12-28T14:08:42.849Z,5.67
2017-12-28T14:11:09.615Z,5.00
2017-12-28T14:13:37.440Z,5.47
2017-12-28T14:16:04.366Z,4.47
2017-12-28T14:18:31.186Z,4.73
2017-12-28T14:20:58.049Z,3.70
2017-12-28T14:23:27.651Z,5.80
2017-12-28T14:25:55.333Z,3.73
2017-12-28T14:28:22.188Z,3.90
2017-12-28T14:30:49.052Z,3.93
2017-12-28T14:33:15.879Z,3.70
2017-12-28T14:35:42.770Z,3.53
2017-12-28T14:38:09.551Z,3.17
2017-12-28T14:40:38.301Z,2.97
2017-12-28T14:43:05.919Z,3.53
2017-12-28T14:45:32.785Z,2.40
2017-12-28T14:47:59.592Z,3.00
2017-12-28T14:50:38.020Z,3.13
2017-12-28T14:53:04.845Z,3.23
2017-12-28T14:55:31.745Z,2.77
2017-12-28T14:58:01.560Z,3.90
2017-12-28T15:00:29.762Z,3.27
2017-12-28T15:02:56.653Z,3.97
2017-12-28T15:05:23.736Z,3.77
2017-12-28T15:07:50.603Z,4.57
2017-12-28T15:10:17.460Z,4.23
2017-12-28T15:12:45.078Z,5.57
2017-12-28T15:15:11.938Z,5.30
2017-12-28T15:17:38.785Z,3.63
2017-12-28T15:20:06.682Z,4.00
2017-12-28T15:22:33.517Z,4.43
2017-12-28T15:25:03.334Z,3.50
2017-12-28T15:27:35.176Z,3.80
2017-12-28T15:30:03.153Z,3.63
2017-12-28T15:32:32.122Z,3.80
2017-12-28T15:35:03.408Z,4.07
2017-12-28T15:37:31.031Z,3.87
2017-12-28T15:39:59.869Z,3.70
2017-12-28T15:42:26.760Z,4.83
2017-12-28T15:44:54.112Z,4.23
2017-12-28T15:47:21.641Z,4.10
2017-12-28T15:49:49.448Z,3.23
2017-12-28T15:52:17.565Z,3.63
2017-12-28T15:54:44.660Z,3.77
2017-12-28T15:57:11.550Z,3.47
2017-12-28T15:59:43.324Z,3.37
2017-12-28T16:02:10.168Z,3.60
2017-12-28T16:04:37.002Z,3.80
2017-12-28T16:07:03.892Z,4.23
2017-12-28T16:09:32.105Z,3.80
2017-12-28T16:11:59.134Z,3.67
2017-12-28T16:14:26.311Z,3.17
2017-12-28T16:16:54.048Z,3.53
2017-12-28T16:22:25.707Z,3.50
2017-12-28T16:27:43.060Z,3.57
2017-12-28T16:30:09.954Z,3.50
2017-12-28T16:32:37.069Z,3.40
2017-12-28T16:35:03.927Z,4.13
2017-12-28T16:37:30.951Z,3.53
2017-12-28T16:39:58.139Z,3.20
2017-12-28T16:42:26.777Z,3.40
2017-12-28T16:44:55.809Z,3.00
2017-12-28T16:47:26.448Z,3.30
2017-12-28T16:49:53.387Z,3.10
2017-12-28T16:52:21.839Z,4.10
2017-12-28T16:54:49.467Z,3.70
2017-12-28T16:57:16.551Z,3.27
2017-12-28T16:59:44.296Z,3.33
2017-12-28T17:02:12.326Z,3.77
2017-12-28T17:04:39.296Z,2.73
2017-12-28T17:09:40.988Z,3.40
2017-12-28T17:12:08.051Z,3.20
2017-12-28T17:14:34.907Z,3.20
2017-12-28T17:17:02.067Z,3.17
2017-12-28T17:19:28.998Z,2.53
2017-12-28T17:21:59.121Z,2.80
2017-12-28T17:24:25.934Z,2.97
2017-12-28T17:26:52.844Z,3.40
2017-12-28T17:29:21.634Z,3.43
2017-12-28T17:31:48.574Z,3.70
2017-12-28T17:34:16.505Z,3.70
2017-12-28T17:36:48.736Z,4.13
2017-12-28T17:39:15.652Z,4.33
2017-12-28T17:41:43.456Z,4.00
2017-12-28T17:44:10.615Z,3.77
2017-12-28T17:46:39.363Z,4.37
2017-12-28T17:49:10.958Z,4.57
2017-12-28T17:51:38.806Z,4.60
2017-12-28T17:59:16.552Z,4.73
2017-12-28T18:01:44.561Z,5.10
2017-12-28T18:04:13.361Z,5.77
2017-12-28T18:06:42.631Z,5.60
2017-12-28T18:09:11.232Z,5.90
2017-12-28T18:11:39.039Z,5.80
2017-12-28T18:14:05.920Z,5.93
2017-12-28T18:16:32.796Z,6.10
2017-12-28T18:18:59.758Z,5.27
2017-12-28T18:21:26.643Z,6.40
2017-12-28T18:24:01.252Z,5.70
2017-12-28T18:26:29.036Z,5.30
2017-12-28T18:28:55.883Z,4.50
2017-12-28T18:31:22.772Z,5.93
2017-12-28T18:33:50.556Z,4.30
2017-12-28T18:36:17.581Z,4.43
2017-12-28T18:38:44.882Z,4.07
2017-12-28T18:41:13.428Z,3.67
2017-12-28T18:43:40.393Z,4.13
2017-12-28T18:46:09.164Z,3.40
2017-12-28T18:48:36.112Z,3.90
2017-12-28T18:51:02.971Z,3.50
2017-12-28T18:53:29.888Z,3.83
2017-12-28T18:55:56.869Z,3.83
2017-12-28T18:58:23.877Z,3.60
2017-12-28T19:00:50.697Z,3.67
2017-12-28T19:03:18.328Z,3.43
2017-12-28T19:05:45.311Z,4.00
2017-12-28T19:08:12.163Z,3.50
2017-12-28T19:10:39.017Z,3.57
2017-12-28T19:13:05.937Z,3.20
2017-12-28T19:15:33.022Z,3.50
2017-12-28T19:17:59.984Z,3.30
2017-12-28T19:20:27.023Z,3.07
2017-12-28T19:25:25.458Z,3.13
2017-12-28T19:27:52.447Z,3.30
2017-12-28T19:30:19.437Z,4.07
2017-12-28T19:32:46.910Z,4.30
2017-12-28T19:35:13.974Z,4.80
2017-12-28T19:37:40.868Z,3.50
2017-12-28T19:40:08.097Z,4.37
2017-12-28T19:42:34.975Z,4.40
2017-12-28T19:45:02.577Z,4.03
2017-12-28T19:47:29.556Z,3.90
2017-12-28T19:52:56.382Z,3.97
2017-12-28T20:09:33.482Z,3.93
2017-12-28T20:12:01.323Z,4.10
2017-12-28T20:14:28.209Z,5.13
2017-12-28T20:16:55.258Z,4.20
2017-12-28T20:19:22.150Z,4.00
2017-12-28T20:21:49.137Z,4.33
2017-12-28T20:24:17.556Z,3.83
2017-12-28T20:26:49.893Z,4.43
2017-12-28T20:29:16.887Z,5.10
2017-12-28T20:34:15.349Z,4.33
2017-12-28T20:36:42.534Z,4.70
2017-12-28T20:39:11.175Z,4.53
2017-12-28T20:41:38.162Z,4.80
2017-12-28T20:44:10.068Z,5.00
2017-12-28T20:46:40.306Z,4.10
2017-12-28T20:49:08.791Z,4.33
2017-12-28T20:51:37.383Z,4.67
2017-12-28T20:54:08.178Z,4.53
2017-12-28T20:56:35.309Z,4.40
2017-12-28T20:59:19.097Z,4.20
2017-12-28T21:04:31.486Z,4.80
2017-12-28T21:06:58.709Z,4.77
2017-12-28T21:09:32.784Z,5.20
2017-12-28T21:11:59.788Z,3.70
2017-12-28T21:14:28.703Z,5.00
2017-12-28T21:16:55.693Z,4.57
2017-12-28T21:19:22.514Z,4.47
2017-12-28T21:21:49.929Z,5.30
2017-12-28T21:24:16.726Z,4.17
2017-12-28T21:26:43.543Z,4.53
2017-12-28T21:31:48.556Z,4.27
2017-12-28T21:34:24.597Z,3.70
2017-12-28T21:36:51.772Z,4.33
2017-12-28T21:39:19.957Z,4.73
2017-12-28T21:44:21.532Z,5.03
2017-12-28T21:46:48.933Z,4.80
2017-12-28T21:49:16.084Z,4.20
2017-12-28T21:51:45.761Z,5.13
2017-12-28T21:54:13.533Z,4.60
2017-12-28T21:56:41.786Z,5.07
2017-12-28T21:59:08.713Z,4.40
2017-12-28T22:01:35.558Z,4.27
2017-12-28T22:04:02.833Z,4.77
2017-12-28T22:06:29.716Z,3.97
2017-12-28T22:08:56.566Z,3.90
2017-12-28T22:11:29.507Z,4.20
2017-12-28T22:13:56.339Z,4.97
2017-12-28T22:16:23.097Z,3.70
2017-12-28T22:27:37.036Z,4.53
2017-12-28T22:32:39.307Z,4.60
2017-12-28T22:35:10.572Z,4.60
2017-12-28T22:37:37.459Z,4.67
2017-12-28T22:40:04.283Z,5.40
2017-12-28T22:42:31.266Z,4.60
2017-12-28T22:47:34.635Z,5.20
2017-12-28T22:50:01.940Z,4.57
2017-12-28T22:52:28.836Z,5.53
2017-12-28T22:54:55.849Z,4.97
2017-12-28T22:57:28.627Z,4.77
2017-12-28T23:00:05.646Z,4.67
2017-12-28T23:05:27.920Z,4.80
2017-12-28T23:07:55.995Z,6.13
2017-12-28T23:10:22.799Z,5.17
2017-12-28T23:15:37.871Z,4.63
2017-12-28T23:18:10.821Z,4.47
2017-12-28T23:20:39.207Z,5.10
2017-12-28T23:23:19.655Z,5.33
2017-12-28T23:31:15.182Z,3.70
2017-12-28T23:33:55.639Z,5.07
2017-12-28T23:42:04.007Z,4.30
2017-12-28T23:44:31.795Z,17.13
2017-12-28T23:47:01.575Z,5.70
2017-12-28T23:49:28.785Z,4.63
2017-12-28T23:54:51.685Z,5.17
2017-12-28T23:57:18.789Z,4.70
2017-12-28T23:59:45.594Z,4.40
